Time;durP1;ratioP1;P1;durP2;ratioP2;P2;SDS_P1;SDS_P2;PMS_P1;PMS_P2;Temp;Humidity;BMP_temperature;BMP_pressure;BME280_temperature;BME280_humidity;BME280_pressure;Samples;Min_cycle;Max_cycle;Signal;HPM_P1;HPM_P2
2023/07/31 00:00:29;;;;;;;3.65;2.08;;;17.30;99.90;;;;;;4989004;28;20140;-79
2023/07/31 00:02:54;;;;;;;3.53;1.92;;;17.30;99.90;;;;;;4984514;28;20046;-79
2023/07/31 00:05:21;;;;;;;5.18;2.40;;;17.30;99.90;;;;;;4980668;28;20057;-79
2023/07/31 00:07:48;;;;;;;4.07;2.40;;;17.30;99.90;;;;;;4981159;28;20051;-79
2023/07/31 00:10:14;;;;;;;3.35;2.30;;;17.20;99.90;;;;;;4983750;28;20160;-79
2023/07/31 00:12:42;;;;;;;5.43;2.70;;;17.20;99.90;;;;;;4969587;28;20046;-79
2023/07/31 00:15:08;;;;;;;3.25;2.55;;;17.20;99.90;;;;;;5002477;28;20065;-79
2023/07/31 00:17:34;;;;;;;3.73;2.33;;;17.20;99.90;;;;;;4990393;28;20046;-79
2023/07/31 00:20:00;;;;;;;3.85;2.50;;;17.20;99.90;;;;;;4980307;28;20537;-78
2023/07/31 00:22:26;;;;;;;4.10;2.70;;;17.20;99.90;;;;;;4985533;28;20050;-79
2023/07/31 00:24:52;;;;;;;3.63;2.10;;;17.10;99.90;;;;;;4985542;28;20055;-79
2023/07/31 00:27:17;;;;;;;3.13;2.30;;;17.10;99.90;;;;;;4962021;28;20504;-79
2023/07/31 00:29:43;;;;;;;2.97;2.25;;;17.20;99.90;;;;;;4972132;28;20050;-79
2023/07/31 00:32:09;;;;;;;3.15;2.38;;;17.10;99.90;;;;;;4985510;28;20039;-79
2023/07/31 00:34:34;;;;;;;3.00;2.40;;;17.10;99.90;;;;;;4967538;28;20049;-79
2023/07/31 00:37:00;;;;;;;3.33;2.10;;;17.10;99.90;;;;;;4976348;28;20046;-79
2023/07/31 00:39:25;;;;;;;3.33;2.17;;;17.10;99.90;;;;;;4966959;28;20041;-79
2023/07/31 00:41:51;;;;;;;2.85;2.17;;;17.00;99.90;;;;;;4977742;28;20085;-79
2023/07/31 00:44:17;;;;;;;3.28;2.42;;;17.00;99.90;;;;;;4988086;28;20046;-79
2023/07/31 00:46:42;;;;;;;3.55;2.22;;;17.00;99.90;;;;;;4982464;28;20396;-79
2023/07/31 00:49:08;;;;;;;3.78;2.20;;;17.00;99.90;;;;;;4980770;28;20093;-79
2023/07/31 00:51:34;;;;;;;2.70;2.17;;;17.00;99.90;;;;;;4981991;28;20126;-79
2023/07/31 00:54:00;;;;;;;3.35;2.13;;;17.00;99.90;;;;;;4981109;28;20087;-79
2023/07/31 00:56:27;;;;;;;3.65;2.30;;;16.90;99.90;;;;;;4984093;28;20064;-79
2023/07/31 00:58:53;;;;;;;3.60;2.13;;;16.90;99.90;;;;;;4973574;28;20109;-79
2023/07/31 01:01:19;;;;;;;3.08;2.30;;;16.90;99.90;;;;;;4986111;28;20409;-79
2023/07/31 01:03:45;;;;;;;3.28;2.17;;;17.00;99.90;;;;;;4986955;28;20137;-79
2023/07/31 01:06:39;;;;;;;3.05;2.30;;;16.90;99.90;;;;;;4982789;28;20211;-79
2023/07/31 01:09:30;;;;;;;3.78;2.00;;;16.90;99.90;;;;;;4982357;28;20068;-79
2023/07/31 01:12:00;;;;;;;2.90;2.20;;;16.90;99.90;;;;;;4977541;28;20038;-79
2023/07/31 01:14:25;;;;;;;3.40;2.22;;;16.90;99.90;;;;;;4970263;28;20490;-79
2023/07/31 01:16:51;;;;;;;2.17;1.90;;;16.90;99.90;;;;;;4986272;28;20053;-79
2023/07/31 01:19:22;;;;;;;3.38;2.25;;;16.90;99.90;;;;;;4972743;28;20085;-79
2023/07/31 01:22:06;;;;;;;3.28;2.25;;;16.90;99.90;;;;;;4964308;28;20051;-79
2023/07/31 01:24:56;;;;;;;2.83;2.00;;;16.90;99.90;;;;;;4978014;28;20077;-79
2023/07/31 01:27:44;;;;;;;2.00;1.73;;;16.90;99.90;;;;;;4981826;28;20038;-79
2023/07/31 01:30:16;;;;;;;2.58;1.80;;;16.80;99.90;;;;;;4961912;28;20085;-79
2023/07/31 01:32:43;;;;;;;3.75;1.80;;;16.80;99.90;;;;;;4982578;28;20201;-79
2023/07/31 01:35:10;;;;;;;2.90;1.90;;;16.80;99.90;;;;;;4978165;28;20206;-79
2023/07/31 01:37:36;;;;;;;4.60;1.83;;;16.80;99.90;;;;;;4977569;28;20046;-79
2023/07/31 01:40:03;;;;;;;3.75;1.95;;;16.80;99.90;;;;;;4968019;28;20653;-78
2023/07/31 01:42:29;;;;;;;3.30;1.80;;;16.80;99.90;;;;;;4981928;28;20049;-79
2023/07/31 01:44:54;;;;;;;1.85;1.50;;;16.70;99.90;;;;;;4973192;28;20039;-79
2023/07/31 01:47:20;;;;;;;2.85;1.50;;;16.70;99.90;;;;;;4984130;28;20042;-79
2023/07/31 01:49:46;;;;;;;1.50;1.20;;;16.70;99.90;;;;;;4969506;28;20042;-79
2023/07/31 01:52:11;;;;;;;1.85;1.30;;;16.70;99.90;;;;;;4981275;28;20077;-78
2023/07/31 01:54:37;;;;;;;1.70;1.48;;;16.70;99.90;;;;;;4986834;28;20046;-79
2023/07/31 01:57:03;;;;;;;1.45;1.10;;;16.70;99.90;;;;;;4986326;28;20491;-79
2023/07/31 01:59:28;;;;;;;1.60;1.30;;;16.60;99.90;;;;;;4966790;28;20120;-78
2023/07/31 02:01:54;;;;;;;1.90;1.13;;;16.60;99.90;;;;;;4970813;28;20136;-79
2023/07/31 02:04:20;;;;;;;1.20;1.10;;;16.60;99.90;;;;;;4983066;28;20038;-79
2023/07/31 02:06:46;;;;;;;1.83;1.20;;;16.60;99.90;;;;;;4966729;28;20046;-78
2023/07/31 02:09:11;;;;;;;1.35;1.02;;;16.60;99.90;;;;;;4978225;28;20042;-78
2023/07/31 02:11:37;;;;;;;1.58;0.85;;;16.70;99.90;;;;;;4967016;28;20145;-79
2023/07/31 02:14:03;;;;;;;1.73;1.10;;;16.60;99.90;;;;;;4972388;28;20042;-79
2023/07/31 02:16:28;;;;;;;2.13;1.30;;;16.60;99.90;;;;;;4980253;28;20140;-79
2023/07/31 02:18:54;;;;;;;2.22;1.20;;;16.60;99.90;;;;;;4984756;28;20043;-78
2023/07/31 02:21:20;;;;;;;1.63;1.30;;;16.60;99.90;;;;;;4977885;28;20041;-78
2023/07/31 02:23:45;;;;;;;1.70;1.13;;;16.60;99.90;;;;;;4979121;28;20038;-79
2023/07/31 02:26:11;;;;;;;1.35;1.00;;;16.60;99.90;;;;;;4984602;28;20511;-79
2023/07/31 02:28:37;;;;;;;1.55;1.10;;;16.60;99.90;;;;;;4965457;28;20047;-79
2023/07/31 02:31:02;;;;;;;1.20;0.93;;;16.60;99.90;;;;;;4976379;28;20050;-79
2023/07/31 02:33:28;;;;;;;1.60;0.90;;;16.60;99.90;;;;;;4979751;28;20129;-79
2023/07/31 02:35:54;;;;;;;1.45;0.90;;;16.60;99.90;;;;;;4970546;28;20053;-78
2023/07/31 02:38:19;;;;;;;1.63;1.05;;;16.60;99.90;;;;;;4968160;28;20053;-79
2023/07/31 02:40:45;;;;;;;1.13;1.02;;;16.60;99.90;;;;;;4973191;28;20041;-79
2023/07/31 02:43:11;;;;;;;1.38;0.90;;;16.60;99.90;;;;;;4963274;28;20047;-79
2023/07/31 02:45:36;;;;;;;1.90;1.08;;;16.60;99.90;;;;;;4979834;28;20050;-79
2023/07/31 02:48:02;;;;;;;1.58;1.20;;;16.60;99.90;;;;;;4963797;28;20109;-79
2023/07/31 02:50:28;;;;;;;0.98;0.90;;;16.60;99.90;;;;;;4963478;28;20456;-79
2023/07/31 02:52:54;;;;;;;1.70;0.95;;;16.60;99.90;;;;;;4972918;28;20039;-79
2023/07/31 02:55:20;;;;;;;1.98;1.42;;;16.60;99.90;;;;;;4969102;28;20461;-79
2023/07/31 02:57:45;;;;;;;1.10;1.00;;;16.60;99.90;;;;;;4983006;28;20034;-79
2023/07/31 03:00:11;;;;;;;1.60;1.15;;;16.60;99.90;;;;;;4983697;28;20141;-79
2023/07/31 03:02:37;;;;;;;1.73;1.40;;;16.60;99.90;;;;;;4980482;28;20081;-79
2023/07/31 03:05:03;;;;;;;1.20;1.10;;;16.60;99.90;;;;;;4960114;28;20039;-79
2023/07/31 03:07:30;;;;;;;1.42;1.33;;;16.70;99.90;;;;;;4982926;28;20516;-79
2023/07/31 03:09:56;;;;;;;1.42;1.20;;;16.60;99.90;;;;;;4976515;28;20128;-79
2023/07/31 03:12:22;;;;;;;1.35;1.20;;;16.60;99.90;;;;;;4984841;28;20096;-79
2023/07/31 03:14:47;;;;;;;1.50;1.20;;;16.60;99.90;;;;;;4961366;28;20444;-79
2023/07/31 03:17:13;;;;;;;3.17;1.40;;;16.60;99.90;;;;;;4969444;28;20749;-79
2023/07/31 03:19:39;;;;;;;1.30;1.20;;;16.70;99.90;;;;;;4963678;28;20042;-79
2023/07/31 03:22:05;;;;;;;2.10;1.48;;;16.70;99.90;;;;;;4975686;28;20054;-79
2023/07/31 03:24:31;;;;;;;1.88;1.60;;;16.70;99.90;;;;;;4965214;28;20174;-79
2023/07/31 03:26:56;;;;;;;2.97;1.42;;;16.70;99.90;;;;;;4990223;28;20125;-79
2023/07/31 03:29:22;;;;;;;2.10;1.40;;;16.70;99.90;;;;;;4987210;28;20043;-79
2023/07/31 03:31:48;;;;;;;2.20;1.50;;;16.70;99.90;;;;;;4972621;28;20054;-79
2023/07/31 03:34:13;;;;;;;1.40;1.25;;;16.70;99.90;;;;;;4961378;28;20047;-79
2023/07/31 03:36:39;;;;;;;2.38;1.70;;;16.70;99.90;;;;;;4984088;28;20047;-79
2023/07/31 03:39:05;;;;;;;3.03;1.40;;;16.70;99.90;;;;;;4987702;28;20478;-79
2023/07/31 03:41:30;;;;;;;2.17;1.13;;;16.70;99.90;;;;;;4991145;28;20046;-79
2023/07/31 03:43:56;;;;;;;1.42;1.30;;;16.70;99.90;;;;;;4971628;28;20142;-78
2023/07/31 03:46:23;;;;;;;1.52;1.30;;;16.70;99.90;;;;;;4974963;28;20046;-79
2023/07/31 03:48:49;;;;;;;2.15;1.25;;;16.80;99.90;;;;;;4967482;28;20047;-79
2023/07/31 03:51:14;;;;;;;1.75;1.00;;;16.70;99.90;;;;;;4978584;28;20437;-78
2023/07/31 03:53:40;;;;;;;1.40;0.90;;;16.70;99.90;;;;;;4982463;28;20047;-78
2023/07/31 03:56:06;;;;;;;1.77;1.10;;;16.70;99.90;;;;;;4970890;28;20239;-78
2023/07/31 03:58:32;;;;;;;2.38;1.13;;;16.70;99.90;;;;;;4974340;28;20149;-78
2023/07/31 04:00:57;;;;;;;1.00;0.90;;;16.80;99.90;;;;;;4983345;28;20038;-79
2023/07/31 04:03:23;;;;;;;1.10;1.00;;;16.70;99.90;;;;;;4987037;28;20565;-79
2023/07/31 04:05:48;;;;;;;1.08;0.90;;;16.70;99.90;;;;;;4971315;28;20054;-79
2023/07/31 04:08:14;;;;;;;1.20;1.10;;;16.70;99.90;;;;;;4974172;28;20050;-79
2023/07/31 04:10:40;;;;;;;1.00;0.90;;;16.70;99.90;;;;;;4981325;28;20039;-79
2023/07/31 04:13:05;;;;;;;1.30;1.10;;;16.70;99.90;;;;;;4986400;28;20057;-79
2023/07/31 04:15:31;;;;;;;1.13;1.02;;;16.70;99.90;;;;;;4976791;28;20057;-79
2023/07/31 04:17:57;;;;;;;2.17;1.13;;;16.70;99.90;;;;;;4983712;28;20530;-78
2023/07/31 04:20:22;;;;;;;1.95;0.93;;;16.70;99.90;;;;;;4968913;28;20035;-79
2023/07/31 04:22:49;;;;;;;1.63;0.90;;;16.80;99.90;;;;;;4966027;28;20137;-78
2023/07/31 04:25:15;;;;;;;2.35;1.00;;;16.80;99.90;;;;;;4980329;28;20038;-78
2023/07/31 04:27:40;;;;;;;1.90;1.20;;;16.80;99.90;;;;;;4972076;28;20046;-78
2023/07/31 04:30:07;;;;;;;1.30;0.90;;;16.80;99.90;;;;;;4980687;28;20039;-78
2023/07/31 04:32:32;;;;;;;1.25;1.10;;;16.80;99.90;;;;;;4986729;28;20054;-79
2023/07/31 04:34:58;;;;;;;1.40;1.10;;;16.80;99.90;;;;;;4971791;28;20053;-78
2023/07/31 04:37:24;;;;;;;1.20;0.90;;;16.80;99.90;;;;;;4964539;28;20141;-79
2023/07/31 04:39:49;;;;;;;1.77;1.00;;;16.80;99.90;;;;;;4983449;28;20070;-79
2023/07/31 04:42:15;;;;;;;2.60;1.00;;;16.80;99.90;;;;;;4984727;28;20166;-79
2023/07/31 04:44:40;;;;;;;1.90;1.27;;;16.70;99.90;;;;;;4970076;28;20060;-79
2023/07/31 04:47:06;;;;;;;2.67;1.30;;;16.70;99.90;;;;;;4977026;28;20082;-79
2023/07/31 04:49:32;;;;;;;3.85;1.70;;;16.80;99.90;;;;;;4988301;28;20046;-79
2023/07/31 04:51:58;;;;;;;4.75;2.50;;;16.70;99.90;;;;;;4989535;28;20074;-79
2023/07/31 04:54:24;;;;;;;8.38;3.47;;;16.80;99.90;;;;;;4979612;28;20610;-79
2023/07/31 04:56:49;;;;;;;7.68;3.90;;;16.80;99.90;;;;;;4983891;28;20137;-79
2023/07/31 04:59:15;;;;;;;7.82;3.97;;;16.80;99.90;;;;;;4982211;28;20042;-78
2023/07/31 05:01:41;;;;;;;9.65;4.95;;;16.80;99.90;;;;;;4985029;28;20046;-79
2023/07/31 05:04:06;;;;;;;10.73;4.88;;;16.80;99.90;;;;;;4983732;28;20061;-79
2023/07/31 05:06:32;;;;;;;10.27;5.30;;;16.80;99.90;;;;;;4982111;28;20085;-80
2023/07/31 05:08:58;;;;;;;10.25;5.18;;;16.90;99.90;;;;;;4973375;28;20043;-76
2023/07/31 05:11:24;;;;;;;9.23;5.03;;;16.90;99.90;;;;;;4985726;28;20038;-75
2023/07/31 05:13:49;;;;;;;11.02;5.20;;;16.90;99.90;;;;;;4977270;28;20109;-75
2023/07/31 05:16:15;;;;;;;11.30;5.68;;;16.90;99.90;;;;;;4971162;28;20051;-75
2023/07/31 05:18:41;;;;;;;12.13;5.75;;;16.90;99.90;;;;;;4990433;28;20070;-75
2023/07/31 05:21:08;;;;;;;13.07;6.18;;;16.90;99.90;;;;;;4969892;28;20129;-75
2023/07/31 05:23:33;;;;;;;11.60;6.25;;;16.90;99.90;;;;;;4968156;28;20046;-75
2023/07/31 05:26:06;;;;;;;14.80;6.88;;;16.90;99.90;;;;;;4975624;28;20061;-73
2023/07/31 05:28:34;;;;;;;13.32;7.05;;;17.00;99.90;;;;;;4985449;28;20046;-76
2023/07/31 05:31:01;;;;;;;16.52;7.85;;;17.00;99.90;;;;;;4960771;28;20050;-76
2023/07/31 05:33:27;;;;;;;17.92;8.32;;;17.00;99.90;;;;;;4982021;28;20104;-76
2023/07/31 05:35:53;;;;;;;21.88;8.38;;;17.00;99.90;;;;;;4975922;28;20508;-76
2023/07/31 05:38:18;;;;;;;18.30;8.15;;;17.00;99.90;;;;;;4962483;28;20042;-76
2023/07/31 05:40:44;;;;;;;19.15;8.32;;;17.00;99.90;;;;;;4988890;28;20053;-76
2023/07/31 05:43:10;;;;;;;18.67;8.50;;;17.10;99.90;;;;;;4964872;28;20046;-76
2023/07/31 05:45:36;;;;;;;19.42;8.60;;;17.00;99.90;;;;;;4978164;28;20401;-76
2023/07/31 05:48:02;;;;;;;19.87;9.77;;;17.10;99.90;;;;;;4961512;28;20074;-76
2023/07/31 05:50:28;;;;;;;17.35;9.15;;;17.10;99.90;;;;;;4981325;28;20130;-75
2023/07/31 05:52:54;;;;;;;20.70;9.70;;;17.10;99.90;;;;;;4987324;28;20141;-75
2023/07/31 05:55:20;;;;;;;18.60;9.27;;;17.10;99.90;;;;;;4987655;28;20046;-75
2023/07/31 05:57:46;;;;;;;23.02;10.93;;;17.10;99.90;;;;;;4984673;28;20046;-75
2023/07/31 06:00:13;;;;;;;19.42;9.63;;;17.10;99.90;;;;;;4980665;28;20422;-76
2023/07/31 06:02:39;;;;;;;19.40;10.15;;;17.10;99.90;;;;;;4989219;28;20113;-75
2023/07/31 06:05:08;;;;;;;22.17;11.27;;;17.10;99.90;;;;;;4977727;28;20054;-75
2023/07/31 06:07:33;;;;;;;21.38;10.00;;;17.10;99.90;;;;;;4969665;28;20073;-73
2023/07/31 06:10:04;;;;;;;20.30;10.40;;;17.10;99.90;;;;;;4985286;28;20520;-75
2023/07/31 06:12:31;;;;;;;24.13;11.45;;;17.10;99.90;;;;;;4970175;28;20046;-75
2023/07/31 06:14:56;;;;;;;24.27;11.50;;;17.20;99.90;;;;;;4968491;28;20057;-75
2023/07/31 06:17:22;;;;;;;22.77;11.13;;;17.20;99.90;;;;;;4969836;28;20038;-75
2023/07/31 06:19:48;;;;;;;24.90;11.60;;;17.20;99.90;;;;;;4987061;28;20100;-75
2023/07/31 06:22:14;;;;;;;27.77;11.48;;;17.20;99.90;;;;;;4977969;28;20100;-75
2023/07/31 06:24:40;;;;;;;22.38;11.75;;;17.20;99.90;;;;;;4983752;28;20858;-75
2023/07/31 06:27:06;;;;;;;23.25;11.57;;;17.30;99.90;;;;;;4957026;28;20054;-75
2023/07/31 06:29:32;;;;;;;20.70;11.63;;;17.30;99.90;;;;;;4969566;28;20046;-75
2023/07/31 06:31:58;;;;;;;24.25;10.98;;;17.30;99.90;;;;;;4967742;28;20117;-75
2023/07/31 06:34:24;;;;;;;26.77;11.98;;;17.30;99.90;;;;;;4984841;28;20042;-73
2023/07/31 06:36:49;;;;;;;22.00;11.52;;;17.30;99.90;;;;;;4968483;28;20642;-75
2023/07/31 06:39:15;;;;;;;22.58;11.23;;;17.30;99.90;;;;;;4983835;28;20068;-74
2023/07/31 06:41:42;;;;;;;23.10;11.50;;;17.30;99.90;;;;;;4981308;28;20046;-73
2023/07/31 06:44:08;;;;;;;23.40;11.25;;;17.30;99.90;;;;;;4983622;28;20076;-73
2023/07/31 06:46:34;;;;;;;25.17;12.13;;;17.30;99.90;;;;;;4979546;28;20397;-73
2023/07/31 06:49:00;;;;;;;23.58;10.85;;;17.30;99.90;;;;;;4985754;28;20446;-73
2023/07/31 06:51:25;;;;;;;23.00;11.05;;;17.30;99.90;;;;;;4979324;28;20569;-73
2023/07/31 06:53:51;;;;;;;23.00;11.13;;;17.30;99.90;;;;;;4987681;28;20050;-73
2023/07/31 06:56:17;;;;;;;22.50;10.45;;;17.30;99.90;;;;;;4979224;28;20188;-75
2023/07/31 06:58:42;;;;;;;19.40;10.35;;;17.20;99.90;;;;;;4982293;28;20155;-73
2023/07/31 07:01:08;;;;;;;19.17;9.88;;;17.20;99.90;;;;;;4977761;28;20046;-73
2023/07/31 07:03:34;;;;;;;19.25;10.35;;;17.20;99.90;;;;;;4972828;28;22043;-73
2023/07/31 07:06:00;;;;;;;17.65;9.57;;;17.20;99.90;;;;;;4983330;28;20126;-73
2023/07/31 07:08:26;;;;;;;22.75;10.13;;;17.20;99.90;;;;;;4988219;28;20150;-74
2023/07/31 07:10:52;;;;;;;19.15;8.50;;;17.20;99.90;;;;;;4974235;28;20141;-74
2023/07/31 07:13:18;;;;;;;22.88;9.90;;;17.20;99.90;;;;;;4989406;28;20034;-77
2023/07/31 07:15:48;;;;;;;19.73;10.15;;;17.20;99.90;;;;;;4990455;28;20054;-75
2023/07/31 07:18:14;;;;;;;20.42;8.55;;;17.20;99.90;;;;;;4983003;28;20051;-75
2023/07/31 07:20:40;;;;;;;15.82;8.27;;;17.20;99.90;;;;;;4970282;28;20053;-80
2023/07/31 07:23:06;;;;;;;17.75;8.45;;;17.20;99.90;;;;;;4981113;28;20050;-80
2023/07/31 07:25:31;;;;;;;19.95;9.18;;;17.10;99.90;;;;;;4986718;28;20060;-78
2023/07/31 07:27:58;;;;;;;17.33;9.13;;;17.10;99.90;;;;;;4978472;28;20049;-77
2023/07/31 07:30:25;;;;;;;13.10;7.57;;;17.20;99.90;;;;;;4991406;28;20689;-80
2023/07/31 07:32:50;;;;;;;14.77;8.13;;;17.20;99.90;;;;;;4975610;28;20039;-81
2023/07/31 07:35:16;;;;;;;13.43;7.80;;;17.20;99.90;;;;;;4976177;28;20051;-77
2023/07/31 07:37:42;;;;;;;15.00;7.57;;;17.30;99.90;;;;;;4971962;28;20496;-82
2023/07/31 07:40:08;;;;;;;12.80;7.55;;;17.30;99.90;;;;;;4981494;28;20054;-79
2023/07/31 07:42:34;;;;;;;13.63;8.10;;;17.40;99.90;;;;;;4983255;28;20062;-79
2023/07/31 07:44:59;;;;;;;14.60;7.35;;;17.40;99.90;;;;;;4981142;28;20043;-78
2023/07/31 07:47:25;;;;;;;11.57;6.90;;;17.40;99.90;;;;;;4985603;28;20609;-82
2023/07/31 07:49:51;;;;;;;12.73;7.25;;;17.40;99.90;;;;;;4986283;28;20045;-75
2023/07/31 07:52:16;;;;;;;10.93;6.43;;;17.40;99.90;;;;;;4975436;28;20137;-78
2023/07/31 07:54:42;;;;;;;12.90;6.60;;;17.40;99.90;;;;;;4987651;28;20457;-76
2023/07/31 07:57:08;;;;;;;11.65;6.15;;;17.40;99.90;;;;;;4975065;28;20039;-79
2023/07/31 07:59:33;;;;;;;11.32;6.15;;;17.40;99.90;;;;;;4985144;28;20417;-79
2023/07/31 08:01:59;;;;;;;10.07;5.70;;;17.40;99.90;;;;;;4978500;28;20039;-77
2023/07/31 08:04:25;;;;;;;12.07;5.65;;;17.40;99.90;;;;;;4973644;28;20047;-80
2023/07/31 08:06:50;;;;;;;9.57;5.47;;;17.50;99.90;;;;;;4974551;28;20097;-80
2023/07/31 08:09:16;;;;;;;8.63;5.70;;;17.50;99.90;;;;;;4974006;28;20482;-77
2023/07/31 08:11:41;;;;;;;10.77;6.03;;;17.50;99.90;;;;;;4982266;28;20465;-80
2023/07/31 08:14:07;;;;;;;10.48;5.45;;;17.50;99.90;;;;;;4960936;28;20077;-79
2023/07/31 08:16:33;;;;;;;10.15;5.47;;;17.60;99.90;;;;;;4971260;28;20552;-78
2023/07/31 08:18:58;;;;;;;7.88;5.10;;;17.60;99.90;;;;;;4974187;28;20065;-82
2023/07/31 08:21:24;;;;;;;10.85;5.07;;;17.60;99.90;;;;;;4964059;28;20061;-79
2023/07/31 08:23:50;;;;;;;11.43;5.55;;;17.60;99.90;;;;;;4986682;28;20042;-78
2023/07/31 08:26:17;;;;;;;8.82;4.18;;;17.60;99.90;;;;;;4954855;28;20054;-77
2023/07/31 08:28:43;;;;;;;;;;;17.70;99.90;;;;;;4984007;28;20050;-76
2023/07/31 08:31:09;;;;;;;8.27;4.65;;;17.60;99.90;;;;;;4962239;28;19968;-80
2023/07/31 08:33:34;;;;;;;7.63;4.32;;;17.70;99.90;;;;;;4961032;28;20045;-82
2023/07/31 08:36:01;;;;;;;8.80;4.40;;;17.70;99.90;;;;;;4989369;28;20137;-83
2023/07/31 08:38:27;;;;;;;8.27;4.25;;;17.70;99.90;;;;;;4962818;28;20054;-83
2023/07/31 08:40:53;;;;;;;8.45;4.90;;;17.70;99.90;;;;;;4982494;28;20038;-82
2023/07/31 08:43:21;;;;;;;6.70;4.00;;;17.80;99.90;;;;;;4977153;28;21578;-81
2023/07/31 08:45:47;;;;;;;7.63;4.00;;;17.80;99.90;;;;;;4972405;28;20061;-80
2023/07/31 08:48:15;;;;;;;5.45;3.42;;;17.80;99.90;;;;;;4968663;28;20047;-81
2023/07/31 08:50:41;;;;;;;5.35;3.38;;;17.80;99.90;;;;;;4973983;28;20065;-80
2023/07/31 08:53:07;;;;;;;4.35;3.22;;;17.90;99.90;;;;;;4965581;28;20050;-78
2023/07/31 08:55:34;;;;;;;5.47;3.25;;;17.80;99.90;;;;;;4981173;28;20533;-77
2023/07/31 08:58:01;;;;;;;5.30;3.10;;;17.90;99.90;;;;;;4982178;28;20665;-77
2023/07/31 09:00:28;;;;;;;7.00;2.83;;;17.90;99.90;;;;;;4962987;28;20532;-76
2023/07/31 09:03:08;;;;;;;;;;;18.00;99.90;;;;;;4972882;28;20042;-76
2023/07/31 09:05:35;;;;;;;5.50;2.70;;;17.90;99.90;;;;;;4967216;28;19926;-75
2023/07/31 09:08:04;;;;;;;4.32;2.63;;;18.00;99.90;;;;;;4973274;28;20046;-80
2023/07/31 09:10:30;;;;;;;4.70;2.50;;;18.00;99.90;;;;;;4975068;28;20129;-77
2023/07/31 09:12:56;;;;;;;3.47;2.40;;;18.00;99.90;;;;;;4980053;28;20518;-75
2023/07/31 09:15:23;;;;;;;5.40;2.65;;;18.00;99.90;;;;;;4981812;28;20046;-77
2023/07/31 09:18:00;;;;;;;3.97;2.10;;;18.10;99.90;;;;;;4982283;28;20049;-75
2023/07/31 09:20:25;;;;;;;3.50;2.20;;;18.10;99.90;;;;;;4982128;28;20042;-83
2023/07/31 09:22:52;;;;;;;3.60;2.10;;;18.20;99.90;;;;;;4979025;28;20043;-76
2023/07/31 09:25:20;;;;;;;3.30;2.10;;;18.20;99.90;;;;;;4983672;28;20437;-74
2023/07/31 09:27:49;;;;;;;3.97;1.88;;;18.20;99.90;;;;;;4961312;28;20112;-76
2023/07/31 09:30:16;;;;;;;2.90;1.90;;;18.20;99.90;;;;;;4969453;28;20102;-75
2023/07/31 09:32:43;;;;;;;4.57;2.03;;;18.30;99.90;;;;;;4970294;28;20486;-79
2023/07/31 09:35:32;;;;;;;2.92;1.77;;;18.30;99.90;;;;;;4989950;28;20125;-78
2023/07/31 09:38:07;;;;;;;1.98;1.60;;;18.30;99.90;;;;;;4977982;28;20046;-77
2023/07/31 09:40:53;;;;;;;2.35;1.42;;;18.30;99.90;;;;;;4970277;28;20410;-76
2023/07/31 09:43:20;;;;;;;2.08;1.40;;;18.30;99.90;;;;;;4964596;28;20038;-78
2023/07/31 09:45:47;;;;;;;1.50;1.23;;;18.30;99.90;;;;;;4974023;28;20520;-74
2023/07/31 09:48:17;;;;;;;1.42;1.20;;;18.40;99.90;;;;;;4986098;28;20053;-76
2023/07/31 09:50:47;;;;;;;1.20;1.00;;;18.40;99.90;;;;;;4972789;28;20486;-75
2023/07/31 09:53:13;;;;;;;1.27;1.10;;;18.40;99.90;;;;;;4970612;28;20096;-76
2023/07/31 09:55:40;;;;;;;2.47;1.20;;;18.40;99.90;;;;;;4980988;28;20137;-79
2023/07/31 09:58:07;;;;;;;;;;;18.40;99.90;;;;;;4968443;28;20478;-76
2023/07/31 10:00:33;;;;;;;1.00;0.90;;;18.40;99.90;;;;;;4973956;28;19922;-77
2023/07/31 10:03:01;;;;;;;1.07;0.90;;;18.40;99.90;;;;;;4964066;28;20049;-82
2023/07/31 10:05:50;;;;;;;1.55;1.00;;;18.40;99.90;;;;;;4982265;28;20063;-77
2023/07/31 10:08:17;;;;;;;0.98;0.80;;;18.50;99.90;;;;;;4963426;28;20098;-82
2023/07/31 10:10:44;;;;;;;1.08;0.98;;;18.50;99.90;;;;;;4970424;28;20090;-78
2023/07/31 10:13:12;;;;;;;1.15;0.98;;;18.50;99.90;;;;;;4981992;28;20046;-76
2023/07/31 10:15:38;;;;;;;1.13;1.00;;;18.50;99.90;;;;;;4959350;28;20061;-76
2023/07/31 10:18:06;;;;;;;2.05;1.20;;;18.50;99.90;;;;;;4969317;28;20443;-78
2023/07/31 10:20:32;;;;;;;1.60;1.23;;;18.60;99.90;;;;;;4964882;28;20042;-82
2023/07/31 10:22:59;;;;;;;1.38;1.15;;;18.60;99.90;;;;;;4975811;28;20046;-80
2023/07/31 10:25:26;;;;;;;1.42;1.15;;;18.60;99.90;;;;;;4976814;28;20053;-85
2023/07/31 10:27:53;;;;;;;2.10;1.30;;;18.70;99.90;;;;;;4964979;28;20051;-84
2023/07/31 10:30:27;;;;;;;1.75;1.65;;;18.70;99.90;;;;;;4969581;28;20117;-83
2023/07/31 10:32:54;;;;;;;1.60;1.50;;;18.70;99.90;;;;;;4978109;28;20453;-84
2023/07/31 10:35:22;;;;;;;2.30;1.80;;;18.80;99.90;;;;;;4964828;28;20123;-84
2023/07/31 10:37:48;;;;;;;2.20;1.90;;;18.80;99.90;;;;;;4986962;28;20490;-81
2023/07/31 10:40:23;;;;;;;2.03;1.52;;;18.90;99.90;;;;;;4973505;28;20074;-80
2023/07/31 10:42:58;;;;;;;2.60;1.67;;;18.90;99.90;;;;;;4970287;28;20054;-81
2023/07/31 10:45:27;;;;;;;1.60;1.50;;;18.90;99.90;;;;;;4971197;28;20054;-76
2023/07/31 10:48:13;;;;;;;1.75;1.48;;;19.00;99.90;;;;;;4976558;28;20050;-77
2023/07/31 10:50:46;;;;;;;2.08;1.40;;;19.10;99.90;;;;;;4980707;28;20053;-80
2023/07/31 10:53:32;;;;;;;1.60;1.30;;;19.10;99.90;;;;;;4979412;28;20051;-76
2023/07/31 10:56:04;;;;;;;1.10;1.10;;;19.20;99.90;;;;;;4971098;28;20053;-79
2023/07/31 10:58:31;;;;;;;1.88;1.10;;;19.20;99.90;;;;;;4956781;28;20182;-79
2023/07/31 11:00:58;;;;;;;1.02;1.00;;;19.30;99.90;;;;;;4973045;28;20821;-77
2023/07/31 11:03:45;;;;;;;1.33;1.10;;;19.40;99.90;;;;;;4986195;28;20510;-78
2023/07/31 11:06:11;;;;;;;1.95;1.30;;;19.60;99.90;;;;;;4963390;28;20057;-83
2023/07/31 11:08:48;;;;;;;1.40;1.27;;;19.60;99.90;;;;;;4980166;28;20114;-82
2023/07/31 11:11:18;;;;;;;1.73;1.63;;;19.70;99.90;;;;;;4960806;28;20078;-86
2023/07/31 11:13:50;;;;;;;1.80;1.70;;;19.80;99.90;;;;;;4954729;28;20077;-84
2023/07/31 11:16:17;;;;;;;1.80;1.70;;;19.70;99.90;;;;;;4952607;28;20402;-84
2023/07/31 11:18:44;;;;;;;1.70;1.60;;;19.80;99.90;;;;;;4966396;28;20096;-84
2023/07/31 11:21:18;;;;;;;2.05;1.80;;;19.80;99.90;;;;;;4982497;28;20478;-85
2023/07/31 11:23:49;;;;;;;1.70;1.60;;;19.80;99.90;;;;;;4972692;28;20073;-87
2023/07/31 11:26:16;;;;;;;2.55;2.03;;;19.80;99.90;;;;;;4971525;28;20074;-82
2023/07/31 11:28:42;;;;;;;2.00;1.90;;;19.80;99.90;;;;;;4962983;28;20482;-85
2023/07/31 11:31:11;;;;;;;2.65;1.60;;;19.80;99.90;;;;;;4983205;28;20086;-85
2023/07/31 11:33:37;;;;;;;2.78;1.60;;;19.80;99.90;;;;;;4980691;28;20145;-82
2023/07/31 11:36:03;;;;;;;1.77;1.67;;;19.80;99.90;;;;;;4976276;28;20200;-79
2023/07/31 11:38:31;;;;;;;1.95;1.83;;;19.90;99.90;;;;;;4976435;28;20046;-86
2023/07/31 11:40:59;;;;;;;2.03;1.80;;;19.90;99.90;;;;;;4981351;28;20514;-87
2023/07/31 11:43:26;;;;;;;2.58;1.80;;;20.00;99.90;;;;;;4984372;28;20077;-86
2023/07/31 11:45:56;;;;;;;2.83;2.08;;;20.00;99.90;;;;;;4964991;28;20050;-80
2023/07/31 11:48:23;;;;;;;2.28;1.88;;;20.00;99.90;;;;;;4971140;28;20053;-85
2023/07/31 11:50:50;;;;;;;2.15;2.05;;;20.10;99.90;;;;;;4975249;28;20688;-86
2023/07/31 11:53:19;;;;;;;2.53;2.33;;;20.00;99.90;;;;;;4973805;28;20122;-85
2023/07/31 11:55:46;;;;;;;2.72;2.50;;;20.10;99.90;;;;;;4968543;28;20047;-84
2023/07/31 11:58:13;;;;;;;3.00;2.78;;;20.10;99.90;;;;;;4986867;28;20050;-79
2023/07/31 12:00:39;;;;;;;4.82;3.17;;;20.00;99.90;;;;;;4985188;28;20042;-85
2023/07/31 12:03:05;;;;;;;5.90;2.78;;;20.00;99.90;;;;;;4983051;28;20034;-82
2023/07/31 12:05:31;;;;;;;3.17;2.97;;;19.90;99.90;;;;;;4973070;28;20100;-81
2023/07/31 12:07:58;;;;;;;3.28;2.97;;;19.90;99.90;;;;;;4969598;28;20061;-85
2023/07/31 12:10:30;;;;;;;3.90;3.50;;;19.90;99.90;;;;;;4968625;28;20057;-81
2023/07/31 12:13:05;;;;;;;3.50;3.20;;;19.90;99.90;;;;;;4962325;28;20050;-82
2023/07/31 12:15:39;;;;;;;3.35;2.85;;;20.00;99.90;;;;;;4981742;28;20135;-84
2023/07/31 12:18:13;;;;;;;3.72;3.42;;;20.00;99.90;;;;;;4979706;28;20054;-84
2023/07/31 12:20:45;;;;;;;3.70;3.40;;;20.00;99.90;;;;;;4968315;28;20050;-84
2023/07/31 12:23:28;;;;;;;4.93;3.53;;;20.00;99.90;;;;;;4972390;28;20141;-85
2023/07/31 12:26:12;;;;;;;4.45;4.05;;;20.00;99.90;;;;;;4977535;28;20047;-84
2023/07/31 12:28:46;;;;;;;5.07;4.68;;;19.90;99.90;;;;;;4995983;28;20046;-85
2023/07/31 12:31:14;;;;;;;6.20;5.63;;;19.90;99.90;;;;;;4974766;28;20101;-84
2023/07/31 12:33:41;;;;;;;6.25;5.65;;;19.90;99.90;;;;;;4972627;28;20058;-82
2023/07/31 12:36:10;;;;;;;7.00;6.30;;;19.90;99.90;;;;;;4982383;28;20049;-83
2023/07/31 12:38:35;;;;;;;6.85;6.25;;;19.90;99.90;;;;;;4972015;28;20849;-84
2023/07/31 12:41:01;;;;;;;7.47;6.20;;;19.90;99.90;;;;;;4991926;28;20038;-84
2023/07/31 12:43:27;;;;;;;7.78;6.85;;;19.90;99.90;;;;;;4976370;28;20055;-83